Latest Weather Observations for Wilsons Promontory

IDV60801

Issued at 10:02 pm EST Monday 27 April 2015 (issued every 30 minutes, with the page automatically refreshed every 10 minutes)

About weather observations | Map of weather stations | Latest weather observations for VIC | Other Formats
Station Details ID: 085096 Name: WILSONS PROMONTORY LIGHTHOUSE Lat: -39.13 Lon: 146.42 Height: 95.0 m
Data from the previous 72 hours. | See also: Recent months at Wilsons Promontory
Date/Time
EST
Temp
°C
App
Temp
°C
Dew
Point
Rel
Hum
%
Delta-T
°C
Wind Press
QNH
hPa
Press
MSL
hPa
Rain
since 9 am
mm
Dir
 
Spd
km/h
Gust
km/h
Spd
kts
Gust
kts
27/10:00pm 13.5 4.9 9.0 74 2.3 SW 44 54 24 29 1023.1 - 0.2
27/09:30pm 13.4 4.3 8.5 72 2.4 WSW 46 57 25 31 1022.9 - 0.2
27/09:00pm 13.4 3.6 8.7 73 2.4 WSW 50 59 27 32 1022.5 1022.4 0.2
27/08:30pm 13.3 2.4 8.8 74 2.3 SW 56 65 30 35 1022.2 - 0.2
27/08:00pm 13.3 4.7 8.8 74 2.3 WSW 44 54 24 29 1022.0 - 0.2
27/07:30pm 13.2 4.4 8.1 71 2.5 WSW 44 56 24 30 1021.8 - 0.2
27/07:00pm 13.3 3.8 8.4 72 2.5 WSW 48 59 26 32 1021.6 - 0.2
27/06:37pm 13.3 5.1 8.4 72 2.5 WSW 41 59 22 32 1021.2 - 0.2
27/06:30pm 13.2 4.4 7.9 70 2.6 WSW 44 59 24 32 1021.3 - 0.2
27/06:24pm 13.3 5.1 8.2 71 2.5 W 41 56 22 30 1021.2 - 0.2
27/06:00pm 13.3 3.0 8.0 70 2.6 SW 52 59 28 32 1020.9 1020.8 0.2
27/05:30pm 13.4 2.4 8.5 72 2.5 WSW 56 65 30 35 1020.7 - 0.2
27/05:00pm 13.4 2.3 8.9 74 2.3 SW 57 69 31 37 1020.2 - 0.2
27/04:30pm 13.4 3.3 8.9 74 2.3 WSW 52 65 28 35 1020.0 - 0.2
27/04:00pm 13.2 4.6 10.2 82 1.6 WSW 46 61 25 33 1019.9 - 0.2
27/03:53pm 12.8 4.7 10.2 84 1.3 WSW 43 61 23 33 1020.1 - 0.2
27/03:30pm 13.1 4.4 10.1 82 1.6 WSW 46 63 25 34 1019.7 - 0.2
27/03:29pm 13.1 4.9 10.3 83 1.5 WSW 44 63 24 34 1019.7 - 0.2
27/03:00pm 11.9 3.0 10.5 91 0.7 WSW 48 61 26 33 1019.9 1019.8 0.2
27/02:36pm 12.1 4.4 10.2 88 1.0 W 41 70 22 38 1019.9 - 0.0
27/02:30pm 12.3 0.9 10.4 88 1.0 WSW 61 70 33 38 1019.3 - 0.0
27/02:27pm 12.6 1.6 10.7 88 1.0 WSW 59 69 32 37 1019.3 - 0.0
27/02:24pm 12.5 5.6 10.2 86 1.2 W 37 57 20 31 1019.6 - 0.0
27/02:00pm 13.1 4.7 9.7 80 1.7 WSW 44 59 24 32 1019.5 - 0.0
27/01:30pm 13.0 4.2 9.4 79 1.8 WSW 46 61 25 33 1019.3 - 0.0
27/01:06pm 12.9 1.7 9.7 81 1.6 WSW 59 63 32 34 1019.1 - 0.0
27/01:00pm 13.2 6.0 10.4 83 1.5 WSW 39 52 21 28 1019.6 - 0.0
27/12:30pm 13.0 2.7 9.8 81 1.6 WSW 54 61 29 33 1019.3 - 0.0
27/12:00pm 12.4 0.9 10.0 85 1.2 SW 61 70 33 38 1019.4 1019.3 0.0
27/11:30am 12.6 3.2 10.0 84 1.3 WSW 50 69 27 37 1019.7 - 0.0
27/11:26am 13.0 4.7 10.2 83 1.5 WSW 44 63 24 34 1019.7 - 0.0
27/11:00am 12.8 3.2 10.7 87 1.1 WSW 52 59 28 32 1019.9 - 0.0
27/10:39am 13.0 3.4 9.6 80 1.7 WSW 50 72 27 39 1019.5 - 0.0
27/10:30am 13.1 2.7 9.2 77 2.0 WSW 54 63 29 34 1019.9 - 0.0
27/10:00am 12.9 4.1 9.5 80 1.7 WSW 46 56 25 30 1020.0 - 0.0
27/09:30am 12.7 2.3 9.3 80 1.7 WSW 54 65 29 35 1019.7 - 0.0
27/09:00am 12.5 2.3 9.9 84 1.3 WSW 54 69 29 37 1019.5 1019.4 2.4
27/08:30am 12.4 1.5 9.4 82 1.5 WSW 57 67 31 36 1019.0 - 2.4
27/08:08am 12.9 2.9 9.5 80 1.7 SW 52 74 28 40 1018.7 - 2.4
27/08:00am 12.8 2.4 9.3 79 1.8 SW 54 65 29 35 1018.8 - 2.4
27/07:30am 12.3 1.7 9.9 85 1.2 SW 56 63 30 34 1018.7 - 2.4
27/07:29am 12.3 1.7 9.9 85 1.2 SW 56 63 30 34 1018.6 - 2.4
27/07:22am 11.5 4.8 9.8 89 0.9 W 35 57 19 31 1018.8 - 2.4
27/07:15am 11.6 4.5 9.7 88 1.0 W 37 59 20 32 1018.9 - 2.4
27/07:11am 11.6 0.7 9.5 87 1.1 SW 57 76 31 41 1018.6 - 2.4
27/07:00am 11.5 -0.7 8.9 84 1.3 WSW 63 78 34 42 1017.7 - 2.4
27/06:42am 12.5 -0.9 9.3 81 1.6 SW 70 76 38 41 1017.2 - 2.4
27/06:30am 12.4 2.7 8.9 79 1.8 SW 50 70 27 38 1017.4 - 2.4
27/06:29am 12.3 2.2 8.8 79 1.8 SW 52 70 28 38 1017.4 - 2.4
27/06:00am 12.9 1.8 8.8 76 2.1 SW 57 70 31 38 1017.3 1017.2 2.4
27/05:30am 12.9 2.3 8.6 75 2.2 SW 54 72 29 39 1017.2 - 2.4
27/05:00am 12.6 1.6 8.5 76 2.0 SW 56 76 30 41 1016.5 - 2.4
27/04:56am 12.8 3.5 9.1 78 1.9 SW 48 82 26 44 1016.4 - 2.4
27/04:53am 12.7 3.7 8.8 77 2.0 SW 46 82 25 44 1016.4 - 2.4
27/04:48am 12.8 -1.6 8.3 74 2.2 SW 74 82 40 44 1016.1 - 2.4
27/04:33am 12.8 2.0 9.1 78 1.9 SW 56 74 30 40 1016.5 - 2.4
27/04:30am 12.7 0.8 8.8 77 2.0 SW 61 76 33 41 1016.5 - 2.4
27/04:22am 12.6 -1.0 8.7 77 2.0 SW 70 76 38 41 1016.3 - 2.4
27/04:17am 12.4 3.3 8.5 77 1.9 SW 46 78 25 42 1016.1 - 2.4
27/04:00am 12.7 -1.8 8.0 73 2.3 SW 74 87 40 47 1015.8 - 2.4
27/03:30am 12.9 0.0 9.0 77 2.0 SW 67 80 36 43 1015.6 - 2.4
27/03:25am 12.6 -1.4 8.5 76 2.0 SW 72 80 39 43 1015.6 - 2.4
27/03:23am 12.6 4.9 8.5 76 2.0 SW 39 82 21 44 1015.4 - 2.4
27/03:22am 12.7 5.0 8.6 76 2.1 SW 39 82 21 44 1015.9 - 2.4
27/03:00am 12.6 -1.9 7.9 73 2.3 SW 74 87 40 47 1015.5 1015.4 2.4
27/02:30am 12.6 -0.1 8.5 76 2.0 SW 65 83 35 45 1015.5 - 2.4
27/02:02am 12.5 1.4 8.6 77 2.0 SW 57 82 31 44 1015.5 - 2.4
27/02:00am 12.5 4.8 8.8 78 1.9 S 39 78 21 42 1015.5 - 2.4
27/01:52am 12.5 -1.1 8.6 77 2.0 SW 70 80 38 43 1015.7 - 2.4
27/01:49am 12.6 3.1 8.5 76 2.0 SW 48 80 26 43 1015.6 - 2.4
27/01:47am 12.7 3.7 8.8 77 2.0 SSW 46 76 25 41 1015.6 - 2.4
27/01:33am 12.5 -1.5 8.6 77 2.0 SW 72 80 39 43 1015.6 - 2.4
27/01:32am 12.4 2.2 8.5 77 1.9 SW 52 80 28 43 1015.6 - 2.4
27/01:31am 12.7 4.6 8.8 77 2.0 SW 41 80 22 43 1015.6 - 2.4
27/01:30am 12.4 -0.3 8.3 76 2.0 SW 65 82 35 44 1015.5 - 2.4
27/01:00am 12.7 1.0 9.2 79 1.8 SW 61 82 33 44 1015.2 - 2.4
27/12:30am 12.7 -0.8 9.2 79 1.8 SW 70 89 38 48 1015.2 - 2.4
27/12:00am 12.5 0.4 10.6 88 1.0 SW 65 83 35 45 1015.3 1015.2 2.4
 
Date/Time
EST
Temp
°C
App
Temp
°C
Dew
Point
Rel
Hum
%
Delta-T
°C
Wind Press
QNH
hPa
Press
MSL
hPa
Rain
since 9 am
mm
Dir
 
Spd
km/h
Gust
km/h
Spd
kts
Gust
kts
26/11:50pm 12.7 2.3 11.4 92 0.7 SW 57 76 31 41 1015.4 - 2.4
26/11:30pm 11.8 0.1 10.7 93 0.6 SW 63 78 34 42 1015.9 - 2.4
26/11:01pm 12.7 1.2 10.1 84 1.3 SW 61 80 33 43 1015.3 - 1.8
26/11:00pm 13.0 1.6 10.5 85 1.3 SW 61 74 33 40 1015.4 - 1.8
26/10:49pm 12.6 -0.1 10.1 85 1.3 SW 67 74 36 40 1015.8 - 1.8
26/10:39pm 12.7 4.7 10.4 86 1.2 SW 43 74 23 40 1015.8 - 1.8
26/10:30pm 12.8 -0.2 10.3 85 1.3 SW 69 78 37 42 1015.6 - 1.8
26/10:12pm 12.4 1.8 10.8 90 0.8 SW 57 78 31 42 1015.5 - 1.8
26/10:00pm 12.9 2.5 11.5 91 0.7 WSW 57 74 31 40 1015.9 - 1.8
26/09:43pm 12.3 -0.7 11.0 92 0.7 WSW 70 78 38 42 1015.5 - 1.8
26/09:30pm 12.2 3.8 10.9 92 0.7 W 46 65 25 35 1016.3 - 1.8
26/09:29pm 12.4 4.0 11.1 92 0.7 W 46 65 25 35 1016.1 - 1.8
26/09:24pm 12.1 3.2 10.7 91 0.7 W 48 80 26 43 1016.3 - 1.6
26/09:12pm 12.3 -0.6 10.5 89 0.9 WSW 69 89 37 48 1015.6 - 1.6
26/09:11pm 12.6 -1.2 10.8 89 0.9 WSW 74 89 40 48 1015.3 - 1.6
26/09:00pm 12.7 4.4 11.4 92 0.7 W 46 65 25 35 1016.0 1016.0 1.6
26/08:42pm 12.4 4.4 11.1 92 0.7 W 44 69 24 37 1016.0 - 1.6
26/08:40pm 12.6 4.7 11.5 93 0.6 W 44 74 24 40 1015.9 - 1.6
26/08:33pm 11.9 -0.6 10.6 92 0.7 WSW 67 85 36 46 1015.5 - 1.6
26/08:30pm 11.6 -1.6 10.2 91 0.7 WSW 70 85 38 46 1015.2 - 1.6
26/08:23pm 12.5 -1.8 10.4 87 1.1 WSW 76 82 41 44 1015.0 - 1.2
26/08:02pm 12.8 3.7 11.2 90 0.8 W 50 69 27 37 1015.9 - 1.2
26/08:00pm 12.5 2.9 10.9 90 0.8 W 52 69 28 37 1015.9 - 1.2
26/07:30pm 11.9 1.8 10.3 90 0.8 W 54 72 29 39 1016.0 - 1.2
26/07:00pm 12.2 1.5 9.6 84 1.3 WSW 56 91 30 49 1014.8 - 0.6
26/06:30pm 13.2 1.9 9.3 77 2.0 WSW 59 80 32 43 1015.3 - 0.6
26/06:03pm 13.3 0.9 9.5 78 1.9 WSW 65 83 35 45 1014.8 - 0.6
26/06:00pm 13.6 0.4 9.6 77 2.1 WSW 69 83 37 45 1014.7 1014.6 0.6
26/05:44pm 13.5 1.0 10.7 83 1.5 WSW 67 80 36 43 1014.5 - 0.6
26/05:33pm 13.2 5.2 10.4 83 1.5 W 43 61 23 33 1015.1 - 0.6
26/05:30pm 12.8 4.6 9.8 82 1.5 W 43 57 23 31 1015.4 - 0.6
26/05:09pm 12.7 1.8 9.0 78 1.9 WSW 56 87 30 47 1014.7 - 0.6
26/05:07pm 13.0 1.3 9.3 78 1.9 WSW 61 91 33 49 1014.6 - 0.6
26/05:00pm 12.6 -3.4 8.9 78 1.9 SW 83 93 45 50 1013.9 - 0.6
26/04:45pm 13.3 -0.5 9.2 76 2.1 WSW 72 91 39 49 1013.9 - 0.6
26/04:39pm 13.2 0.0 9.3 77 2.0 WSW 69 82 37 44 1013.9 - 0.6
26/04:33pm 13.1 4.9 10.5 84 1.4 W 44 83 24 45 1014.5 - 0.6
26/04:30pm 12.7 5.4 10.2 85 1.3 W 39 83 21 45 1014.8 - 0.6
26/04:02pm 13.5 2.2 9.6 77 2.0 WSW 59 80 32 43 1014.0 - 0.4
26/04:00pm 13.7 1.8 9.9 78 2.0 WSW 63 80 34 43 1013.9 - 0.4
26/03:53pm 13.4 -0.2 10.2 81 1.7 WSW 72 80 39 43 1013.8 - 0.4
26/03:41pm 12.8 3.7 11.2 90 0.8 WSW 50 70 27 38 1014.0 - 0.4
26/03:30pm 12.2 3.4 10.8 91 0.7 WSW 48 78 26 42 1014.4 - 0.4
26/03:28pm 12.2 3.0 10.8 91 0.7 WSW 50 82 27 44 1014.3 - 0.4
26/03:25pm 11.8 -2.2 10.2 90 0.8 SW 74 95 40 51 1014.0 - 0.4
26/03:15pm 11.5 -4.1 9.8 89 0.9 WSW 82 93 44 50 1013.2 - 0.4
26/03:00pm 12.4 2.4 10.6 89 0.9 WSW 54 72 29 39 1014.0 1013.9 0.4
26/02:30pm 12.1 1.0 10.3 89 0.9 WSW 59 80 32 43 1013.5 - 0.4
26/02:10pm 12.4 1.7 9.6 83 1.4 WSW 56 74 30 40 1014.0 - 0.0
26/02:00pm 12.6 1.9 9.4 81 1.6 WSW 56 70 30 38 1013.7 - 0.0
26/01:31pm 13.6 3.3 9.5 76 2.1 WSW 54 72 29 39 1013.9 - 0.0
26/01:30pm 13.5 2.8 9.4 76 2.1 WSW 56 72 30 39 1014.0 - 0.0
26/01:05pm 13.3 1.3 8.0 70 2.6 WSW 61 80 33 43 1013.5 - 0.0
26/01:00pm 13.3 0.2 8.2 71 2.5 WSW 67 80 36 43 1013.6 - 0.0
26/12:30pm 12.9 0.2 8.4 74 2.2 SW 65 80 35 43 1013.5 - 0.0
26/12:00pm 12.8 -0.3 8.3 74 2.2 SW 67 78 36 42 1013.8 1013.7 0.0
26/11:30am 12.6 -0.5 8.5 76 2.0 SW 67 85 36 46 1013.6 - 0.0
26/11:03am 12.4 -0.7 8.5 77 1.9 SW 67 85 36 46 1013.8 - 0.0
26/11:00am 12.5 -0.9 8.6 77 2.0 SW 69 85 37 46 1013.3 - 0.0
26/10:49am 12.4 -0.2 8.7 78 1.9 SW 65 83 35 45 1013.3 - 0.0
26/10:30am 12.4 -1.3 8.1 75 2.1 SW 70 80 38 43 1013.5 - 0.0
26/10:00am 12.1 -1.4 8.4 78 1.8 SW 69 82 37 44 1013.6 - 0.0
26/09:41am 12.1 -1.7 8.0 76 2.0 SW 70 82 38 44 1013.4 - 0.0
26/09:39am 11.9 2.3 7.8 76 2.0 SW 48 82 26 44 1013.4 - 0.0
26/09:30am 11.9 -2.6 8.2 78 1.8 SW 74 85 40 46 1013.5 - 0.0
26/09:00am 11.9 -0.5 8.0 77 1.9 SW 63 78 34 42 1013.5 1013.4 6.0
26/08:48am 11.8 -1.4 8.1 78 1.8 SW 67 85 36 46 1013.5 - 6.0
26/08:30am 11.7 -1.9 7.8 77 1.9 SW 69 83 37 45 1013.4 - 6.0
26/08:00am 11.8 -1.9 8.1 78 1.8 SW 70 83 38 45 1012.9 - 6.0
26/07:30am 11.9 -1.3 8.0 77 1.9 WSW 67 80 36 43 1012.6 - 6.0
26/07:00am 12.0 -1.7 8.1 77 1.9 SW 70 78 38 42 1011.9 - 6.0
26/06:30am 12.0 -2.0 8.7 80 1.6 SW 72 87 39 47 1011.4 - 6.0
26/06:00am 12.2 -1.1 9.2 82 1.5 SW 69 78 37 42 1011.4 1011.3 6.0
26/05:30am 12.3 0.7 9.7 84 1.3 SW 61 76 33 41 1011.3 - 6.0
26/05:00am 12.5 0.6 9.9 84 1.3 SW 63 74 34 40 1011.3 - 6.0
26/04:30am 12.5 0.6 10.2 86 1.2 SW 63 70 34 38 1011.2 - 6.0
26/04:00am 12.7 2.1 10.6 87 1.1 SW 57 69 31 37 1010.9 - 6.0
26/03:30am 12.7 1.6 11.4 92 0.7 SW 61 69 33 37 1010.7 - 6.0
26/03:00am 13.2 2.6 13.2 100 0.0 SW 61 70 33 38 1010.6 1010.5 6.0
26/02:56am 13.0 1.6 13.0 100 0.0 SW 65 70 35 38 1010.3 - 6.0
26/02:43am 12.8 5.3 12.8 100 0.0 SW 44 63 24 34 1010.7 - 6.0
26/02:30am 12.6 4.3 12.6 100 0.0 SW 48 63 26 34 1010.5 - 6.0
26/02:01am 13.1 5.7 13.1 100 0.0 SW 44 63 24 34 1010.4 - 5.4
26/02:00am 13.1 5.3 13.1 100 0.0 SW 46 63 25 34 1010.4 - 5.4
26/01:33am 13.4 4.6 13.4 100 0.0 SW 52 61 28 33 1010.5 - 5.0
26/01:30am 13.8 11.1 13.6 99 0.1 SW 20 43 11 23 1010.9 - 5.0
26/01:00am 13.9 13.9 13.7 99 0.1 E 6 9 3 5 1011.3 - 4.8
26/12:30am 13.7 13.1 13.5 99 0.1 E 9 13 5 7 1011.2 - 4.8
26/12:00am 13.9 13.4 13.7 99 0.1 E 9 15 5 8 1011.0 1010.9 4.8
 
Date/Time
EST
Temp
°C
App
Temp
°C
Dew
Point
Rel
Hum
%
Delta-T
°C
Wind Press
QNH
hPa
Press
MSL
hPa
Rain
since 9 am
mm
Dir
 
Spd
km/h
Gust
km/h
Spd
kts
Gust
kts
25/11:30pm 14.1 12.2 14.1 100 0.0 E 17 20 9 11 1011.0 - 4.8
25/11:00pm 14.0 13.6 14.0 100 0.0 NE 9 13 5 7 1011.0 - 4.8
25/10:30pm 14.0 12.7 13.8 99 0.1 ENE 13 15 7 8 1010.9 - 4.8
25/10:00pm 14.1 12.1 13.9 99 0.1 ENE 17 20 9 11 1010.9 - 4.8
25/09:30pm 14.3 12.3 13.8 97 0.3 E 17 22 9 12 1010.6 - 4.8
25/09:00pm 14.8 13.6 14.0 95 0.5 SE 13 24 7 13 1010.5 1010.4 4.8
25/08:30pm 14.6 12.9 13.5 93 0.6 SE 15 17 8 9 1010.4 - 4.8
25/08:00pm 14.5 12.1 13.7 95 0.4 SE 19 22 10 12 1010.1 - 4.8
25/07:30pm 14.6 13.4 14.0 96 0.3 W 13 17 7 9 1009.9 - 4.8
25/07:00pm 14.6 13.0 13.8 95 0.4 W 15 20 8 11 1009.6 - 4.8
25/06:30pm 14.3 12.2 13.5 95 0.4 WNW 17 20 9 11 1009.4 - 4.8
25/06:00pm 14.2 12.4 13.2 94 0.6 WNW 15 19 8 10 1009.0 1008.9 4.8
25/05:30pm 14.6 12.9 13.5 93 0.6 W 15 20 8 11 1008.5 - 4.8
25/05:00pm 14.9 12.8 13.6 92 0.7 W 17 24 9 13 1008.3 - 4.8
25/04:30pm 15.0 12.8 13.4 90 0.9 W 17 26 9 14 1008.1 - 4.8
25/04:00pm 15.3 13.1 13.3 88 1.1 W 17 24 9 13 1007.8 - 4.8
25/03:30pm 15.5 13.1 13.9 90 0.9 W 19 26 10 14 1007.7 - 4.8
25/03:00pm 15.5 14.0 14.2 92 0.7 W 15 24 8 13 1007.5 1007.4 4.8
25/02:30pm 15.2 13.3 14.1 93 0.6 WSW 17 24 9 13 1007.3 - 4.8
25/02:00pm 15.2 13.3 14.1 93 0.6 W 17 26 9 14 1007.3 - 4.8
25/01:30pm 15.1 13.6 14.3 95 0.5 W 15 22 8 12 1007.3 - 4.8
25/01:00pm 15.1 13.3 14.5 96 0.3 W 17 24 9 13 1007.3 - 4.8
25/12:30pm 15.0 13.2 14.5 97 0.3 W 17 24 9 13 1007.4 - 4.8
25/12:00pm 14.5 13.3 14.0 97 0.3 W 13 20 7 11 1007.7 1007.6 4.8
25/11:30am 14.4 13.6 14.1 98 0.2 WNW 11 17 6 9 1007.6 - 3.8
25/11:00am 14.2 11.7 13.6 96 0.3 W 19 28 10 15 1007.6 - 2.0
25/10:30am 15.1 14.0 14.3 95 0.5 NW 13 28 7 15 1007.5 - 0.0
25/10:00am 14.9 11.7 14.3 96 0.3 W 24 32 13 17 1007.4 - 0.0
25/09:30am 15.0 12.6 14.5 97 0.3 WNW 20 33 11 18 1007.0 - 0.0
25/09:00am 14.6 11.1 14.4 99 0.1 WNW 26 33 14 18 1006.8 1006.6 2.0
25/08:30am 14.4 12.9 14.2 99 0.1 NW 15 24 8 13 1006.7 - 2.0
25/08:00am 14.2 11.9 14.2 100 0.0 NW 19 30 10 16 1006.3 - 2.0
25/07:30am 13.9 11.5 13.9 100 0.0 NW 19 28 10 15 1006.0 - 2.0
25/07:00am 13.8 12.5 13.8 100 0.0 NW 13 20 7 11 1005.8 - 2.0
25/06:30am 13.6 11.1 13.6 100 0.0 NW 19 35 10 19 1005.6 - 2.0
25/06:00am 13.7 10.3 13.7 100 0.0 WNW 24 41 13 22 1005.2 1005.1 1.6
25/05:30am 13.8 11.2 13.8 100 0.0 WNW 20 33 11 18 1005.3 - 1.0
25/05:00am 13.9 11.0 13.9 100 0.0 NW 22 32 12 17 1004.9 - 1.0
25/04:30am 14.8 13.5 14.8 100 0.0 W 15 24 8 13 1004.7 - 1.0
25/04:00am 14.4 11.3 14.4 100 0.0 WNW 24 32 13 17 1004.6 - 1.0
25/03:30am 14.3 10.4 14.3 100 0.0 WNW 28 37 15 20 1004.6 - 1.0
25/03:00am 14.0 10.3 14.0 100 0.0 WNW 26 33 14 18 1004.6 1004.5 1.0
25/02:30am 14.2 11.4 14.2 100 0.0 WNW 22 32 12 17 1005.0 - 0.8
25/02:00am 14.5 12.1 14.5 100 0.0 W 20 32 11 17 1005.0 - 0.8
25/01:30am 14.5 12.1 14.5 100 0.0 W 20 35 11 19 1004.6 - 0.8
25/01:00am 14.6 12.2 14.4 99 0.1 W 20 33 11 18 1004.5 - 0.8
25/12:30am 14.6 12.4 14.3 98 0.2 W 19 26 10 14 1004.5 - 0.8
25/12:00am 14.6 11.5 14.4 99 0.1 WNW 24 30 13 16 1004.4 1004.3 0.8
 
Date/Time
EST
Temp
°C
App
Temp
°C
Dew
Point
Rel
Hum
%
Delta-T
°C
Wind Press
QNH
hPa
Press
MSL
hPa
Rain
since 9 am
mm
Dir
 
Spd
km/h
Gust
km/h
Spd
kts
Gust
kts
24/11:30pm 14.3 11.9 14.3 100 0.0 WNW 20 30 11 16 1004.4 - 0.8
24/11:00pm 14.5 12.3 14.5 100 0.0 W 19 24 10 13 1004.3 - 0.8
24/10:30pm 14.5 12.3 14.5 100 0.0 W 19 28 10 15 1004.4 - 0.8

Other Formats:

Comma delimited format used in spreadsheet applications
http://www.bom.gov.au/fwo/IDV60801/IDV60801.94893.axf

JavaScript Object Notation format (JSON) in row-major order
http://www.bom.gov.au/fwo/IDV60801/IDV60801.94893.json